createdAt,value
2022-07-28T00:00:26.334Z,22.93
2022-07-28T00:02:24.552Z,23.05
2022-07-28T00:04:24.492Z,22.74
2022-07-28T00:06:22.864Z,22.72
2022-07-28T00:08:21.268Z,22.60
2022-07-28T00:10:19.617Z,22.58
2022-07-28T00:12:18.063Z,22.55
2022-07-28T00:14:16.462Z,22.67
2022-07-28T00:16:15.166Z,22.50
2022-07-28T00:18:13.488Z,22.51
2022-07-28T00:20:13.780Z,22.49
2022-07-28T00:22:11.984Z,22.53
2022-07-28T00:24:10.580Z,22.47
2022-07-28T00:26:09.565Z,22.22
2022-07-28T00:28:08.337Z,22.22
2022-07-28T00:30:08.258Z,22.06
2022-07-28T00:32:07.493Z,21.92
2022-07-28T00:34:05.907Z,21.87
2022-07-28T00:36:07.203Z,21.36
2022-07-28T00:38:08.703Z,20.60
2022-07-28T00:40:11.181Z,20.45
2022-07-28T00:42:09.504Z,20.21
2022-07-28T00:44:08.665Z,20.30
2022-07-28T00:46:08.310Z,20.08
2022-07-28T00:48:07.249Z,19.95
2022-07-28T00:50:06.413Z,19.91
2022-07-28T00:52:08.766Z,19.86
2022-07-28T00:54:07.311Z,19.81
2022-07-28T00:56:06.895Z,19.87
2022-07-28T00:58:05.487Z,19.76
2022-07-28T01:00:05.385Z,19.70
2022-07-28T01:02:04.729Z,19.70
2022-07-28T01:04:04.689Z,20.02
2022-07-28T01:06:11.301Z,19.97
2022-07-28T01:08:18.739Z,20.05
2022-07-28T01:10:25.982Z,20.28
2022-07-28T01:12:35.472Z,20.48
2022-07-28T01:14:40.481Z,20.36
2022-07-28T01:16:45.122Z,20.20
2022-07-28T01:18:46.131Z,20.08
2022-07-28T01:20:48.581Z,20.09
2022-07-28T01:22:59.765Z,20.05
2022-07-28T01:25:08.750Z,20.05
2022-07-28T01:27:12.910Z,20.01
2022-07-28T01:29:29.262Z,20.05
2022-07-28T01:31:37.655Z,20.09
2022-07-28T01:33:41.536Z,19.97
2022-07-28T01:35:46.164Z,20.00
2022-07-28T01:37:48.555Z,19.96
2022-07-28T01:39:51.325Z,20.00
2022-07-28T01:41:51.127Z,20.03
2022-07-28T01:43:58.230Z,20.01
2022-07-28T01:45:58.172Z,19.99
2022-07-28T01:48:01.545Z,19.99
2022-07-28T01:50:03.500Z,19.90
2022-07-28T01:52:03.736Z,19.95
2022-07-28T01:54:04.809Z,20.05
2022-07-28T01:56:04.740Z,20.09
2022-07-28T01:58:04.767Z,20.03
2022-07-28T02:00:04.019Z,20.06
2022-07-28T02:02:12.244Z,20.08
2022-07-28T02:04:13.823Z,20.15
2022-07-28T02:06:15.161Z,20.20
2022-07-28T02:08:15.347Z,20.23
2022-07-28T02:10:18.144Z,20.19
2022-07-28T02:12:19.751Z,20.14
2022-07-28T02:14:23.373Z,20.10
2022-07-28T02:16:26.055Z,20.05
2022-07-28T02:18:24.946Z,20.01
2022-07-28T02:20:24.755Z,20.11
2022-07-28T02:22:23.185Z,20.11
2022-07-28T02:24:26.593Z,20.09
2022-07-28T02:26:29.977Z,20.04
2022-07-28T02:28:29.525Z,20.10
2022-07-28T02:30:35.463Z,20.04
2022-07-28T02:32:40.155Z,20.05
2022-07-28T02:34:41.332Z,19.97
2022-07-28T02:36:47.660Z,19.92
2022-07-28T02:38:48.662Z,19.99
2022-07-28T02:40:49.868Z,20.15
2022-07-28T02:42:50.919Z,19.94
2022-07-28T02:44:56.789Z,19.88
2022-07-28T02:46:58.203Z,19.80
2022-07-28T02:49:07.676Z,19.97
2022-07-28T02:51:08.855Z,20.13
2022-07-28T02:53:15.490Z,20.32
2022-07-28T02:55:16.882Z,20.25
2022-07-28T02:57:17.395Z,19.80
2022-07-28T02:59:17.510Z,19.61
2022-07-28T03:01:20.097Z,19.56
2022-07-28T03:03:19.879Z,19.82
2022-07-28T03:05:17.519Z,20.16
2022-07-28T03:07:16.413Z,20.09
2022-07-28T03:09:16.182Z,20.06
2022-07-28T03:11:15.366Z,20.00
2022-07-28T03:13:13.824Z,20.03
2022-07-28T03:15:12.414Z,20.02
2022-07-28T03:17:11.146Z,19.88
2022-07-28T03:19:10.542Z,19.87
2022-07-28T03:21:08.756Z,20.03
2022-07-28T03:23:08.318Z,20.10
2022-07-28T03:25:14.142Z,20.29
2022-07-28T03:27:19.237Z,20.45
2022-07-28T03:29:19.084Z,20.50
2022-07-28T03:31:18.887Z,20.55
2022-07-28T03:33:17.488Z,20.59
2022-07-28T03:35:17.291Z,20.57
2022-07-28T03:37:19.917Z,20.52
2022-07-28T03:39:19.556Z,20.50
2022-07-28T03:41:20.424Z,20.45
2022-07-28T03:43:22.023Z,20.49
2022-07-28T03:45:20.708Z,20.52
2022-07-28T03:47:23.070Z,20.45
2022-07-28T03:49:23.791Z,20.31
2022-07-28T03:51:22.220Z,20.27
2022-07-28T03:53:22.839Z,20.19
2022-07-28T03:55:21.422Z,19.99
2022-07-28T03:57:21.227Z,19.93
2022-07-28T03:59:20.512Z,19.96
2022-07-28T04:01:18.976Z,19.92
2022-07-28T04:03:42.261Z,20.02
2022-07-28T04:05:35.662Z,20.12
2022-07-28T04:07:34.205Z,20.09
2022-07-28T04:09:32.626Z,20.18
2022-07-28T04:11:31.069Z,20.13
2022-07-28T04:13:32.096Z,20.19
2022-07-28T04:15:31.031Z,20.15
2022-07-28T04:17:29.358Z,19.92
2022-07-28T04:19:27.670Z,20.01
2022-07-28T04:21:26.055Z,20.10
2022-07-28T04:23:24.275Z,20.19
2022-07-28T04:25:24.276Z,20.28
2022-07-28T04:27:22.574Z,20.16
2022-07-28T04:29:27.084Z,19.81
2022-07-28T04:31:26.079Z,19.64
2022-07-28T04:33:27.415Z,19.74
2022-07-28T04:35:27.331Z,19.78
2022-07-28T04:37:25.637Z,19.65
2022-07-28T04:39:30.826Z,19.38
2022-07-28T04:41:29.375Z,19.42
2022-07-28T04:43:27.797Z,19.52
2022-07-28T04:45:27.523Z,19.69
2022-07-28T04:47:25.907Z,19.82
2022-07-28T04:49:24.340Z,20.07
2022-07-28T04:51:23.347Z,20.29
2022-07-28T04:53:22.583Z,20.14
2022-07-28T04:55:21.501Z,20.11
2022-07-28T04:57:19.919Z,20.05
2022-07-28T04:59:20.175Z,19.95
2022-07-28T05:01:21.916Z,19.83
2022-07-28T05:03:20.870Z,20.00
2022-07-28T05:05:19.562Z,19.93
2022-07-28T05:07:17.920Z,19.88
2022-07-28T05:09:16.220Z,19.81
2022-07-28T05:11:15.105Z,19.65
2022-07-28T05:13:13.356Z,19.66
2022-07-28T05:15:12.016Z,19.74
2022-07-28T05:17:11.539Z,19.62
2022-07-28T05:19:11.888Z,19.78
2022-07-28T05:21:10.237Z,19.88
2022-07-28T05:23:08.520Z,19.71
2022-07-28T05:25:14.748Z,19.70
2022-07-28T05:27:13.362Z,19.76
2022-07-28T05:29:11.741Z,19.85
2022-07-28T05:31:10.511Z,19.96
2022-07-28T05:33:10.214Z,19.85
2022-07-28T05:35:09.619Z,19.96
2022-07-28T05:37:08.380Z,20.08
2022-07-28T05:39:06.785Z,20.20
2022-07-28T05:41:06.596Z,20.45
2022-07-28T05:43:05.837Z,20.59
2022-07-28T05:45:16.270Z,20.85
2022-07-28T05:47:15.607Z,20.97
2022-07-28T05:49:15.436Z,20.88
2022-07-28T05:51:13.835Z,20.93
2022-07-28T05:53:12.199Z,20.73
2022-07-28T05:55:12.278Z,20.71
2022-07-28T05:57:15.468Z,20.82
2022-07-28T05:59:15.026Z,20.84
2022-07-28T06:01:13.437Z,20.84
2022-07-28T06:03:11.759Z,20.86
2022-07-28T06:05:11.784Z,20.91
2022-07-28T06:07:10.040Z,21.04
2022-07-28T06:09:08.310Z,20.94
2022-07-28T06:11:11.719Z,21.05
2022-07-28T06:13:15.176Z,21.06
2022-07-28T06:15:14.873Z,21.29
2022-07-28T06:17:15.036Z,21.14
2022-07-28T06:19:13.479Z,21.18
2022-07-28T06:21:13.295Z,21.41
2022-07-28T06:23:11.725Z,21.64
2022-07-28T06:25:13.815Z,22.08
2022-07-28T06:27:12.025Z,22.22
2022-07-28T06:29:10.463Z,22.28
2022-07-28T06:31:08.836Z,22.42
2022-07-28T06:33:07.899Z,21.99
2022-07-28T06:35:07.564Z,21.97
2022-07-28T06:37:07.457Z,22.15
2022-07-28T06:39:06.066Z,21.97
2022-07-28T06:41:04.419Z,22.19
2022-07-28T06:43:05.007Z,22.27
2022-07-28T06:45:05.820Z,22.26
2022-07-28T06:47:04.154Z,22.40
2022-07-28T06:49:02.606Z,22.60
2022-07-28T06:51:02.179Z,22.83
2022-07-28T06:53:01.788Z,22.91
2022-07-28T06:55:00.697Z,22.93
2022-07-28T06:57:00.788Z,23.19
2022-07-28T06:58:59.558Z,23.51
2022-07-28T07:00:57.930Z,24.05
2022-07-28T07:02:56.191Z,24.66
2022-07-28T07:04:54.526Z,24.83
2022-07-28T07:06:52.820Z,24.43
2022-07-28T07:08:52.495Z,24.41
2022-07-28T07:10:51.076Z,24.55
2022-07-28T07:12:49.442Z,24.76
2022-07-28T07:14:47.625Z,24.78
2022-07-28T07:16:46.155Z,24.69
2022-07-28T07:18:44.433Z,24.85
2022-07-28T07:20:45.895Z,24.94
2022-07-28T07:22:44.648Z,24.91
2022-07-28T07:24:44.489Z,24.90
2022-07-28T07:26:42.872Z,24.43
2022-07-28T07:28:41.896Z,24.26
2022-07-28T07:30:40.187Z,24.29
2022-07-28T07:32:38.827Z,24.19
2022-07-28T07:34:39.424Z,24.31
2022-07-28T07:36:37.826Z,24.19
2022-07-28T07:38:36.196Z,24.31
2022-07-28T07:40:36.014Z,24.58
2022-07-28T07:42:34.420Z,24.98
2022-07-28T07:44:32.931Z,25.01
2022-07-28T07:46:31.339Z,24.72
2022-07-28T07:48:29.708Z,24.69
2022-07-28T07:50:27.846Z,24.88
2022-07-28T07:52:26.226Z,25.08
2022-07-28T07:54:24.515Z,25.15
2022-07-28T07:56:24.332Z,24.91
2022-07-28T07:58:22.755Z,24.85
2022-07-28T08:00:28.290Z,25.27
2022-07-28T08:02:27.611Z,25.40
2022-07-28T08:04:26.244Z,25.62
2022-07-28T08:06:27.968Z,26.52
2022-07-28T08:08:27.526Z,26.70
2022-07-28T08:10:26.138Z,26.50
2022-07-28T08:12:25.838Z,26.13
2022-07-28T08:14:24.211Z,26.31
2022-07-28T08:16:22.515Z,26.79
2022-07-28T08:18:21.439Z,27.40
2022-07-28T08:20:19.967Z,27.04
2022-07-28T08:22:18.468Z,26.77
2022-07-28T08:24:32.389Z,26.56
2022-07-28T08:26:32.566Z,26.35
2022-07-28T08:28:32.261Z,26.06
2022-07-28T08:30:32.918Z,25.70
2022-07-28T08:32:31.595Z,25.36
2022-07-28T08:34:33.061Z,25.24
2022-07-28T08:36:32.360Z,24.94
2022-07-28T08:38:30.772Z,24.91
2022-07-28T08:40:32.562Z,25.04
2022-07-28T08:42:40.069Z,24.98
2022-07-28T08:44:49.245Z,24.75
2022-07-28T08:46:49.288Z,24.67
2022-07-28T08:48:48.893Z,24.94
2022-07-28T08:50:48.977Z,25.31
2022-07-28T08:52:54.501Z,25.54
2022-07-28T08:54:55.305Z,25.65
2022-07-28T08:56:54.480Z,25.84
2022-07-28T08:58:52.843Z,25.78
2022-07-28T09:00:52.582Z,26.22
2022-07-28T09:02:52.543Z,26.52
2022-07-28T09:04:51.079Z,26.47
2022-07-28T09:06:49.657Z,26.21
2022-07-28T09:08:48.137Z,26.17
2022-07-28T09:10:46.564Z,25.80
2022-07-28T09:12:45.181Z,26.09
2022-07-28T09:14:43.731Z,26.49
2022-07-28T09:16:44.678Z,26.70
2022-07-28T09:18:42.932Z,26.67
2022-07-28T09:20:41.899Z,26.77
2022-07-28T09:22:56.107Z,26.54
2022-07-28T09:24:55.053Z,26.33
2022-07-28T09:27:02.209Z,25.99
2022-07-28T09:29:00.727Z,25.84
2022-07-28T09:31:08.043Z,25.92
2022-07-28T09:33:42.645Z,26.05
2022-07-28T09:35:44.268Z,25.74
2022-07-28T09:37:42.609Z,25.37
2022-07-28T09:39:40.810Z,25.40
2022-07-28T09:41:49.502Z,25.39
2022-07-28T09:43:53.936Z,25.28
2022-07-28T09:46:05.244Z,25.31
2022-07-28T09:48:12.157Z,25.49
2022-07-28T09:50:21.237Z,25.62
2022-07-28T09:52:30.171Z,25.56
2022-07-28T09:54:28.785Z,26.00
2022-07-28T09:56:32.850Z,26.64
2022-07-28T09:58:31.995Z,27.20
2022-07-28T10:00:32.528Z,28.57
2022-07-28T10:02:32.664Z,29.90
2022-07-28T10:04:35.571Z,30.76
2022-07-28T10:06:37.849Z,31.37
2022-07-28T10:08:44.051Z,31.56
2022-07-28T10:10:42.347Z,32.12
2022-07-28T10:12:40.662Z,31.05
2022-07-28T10:14:38.814Z,31.31
2022-07-28T10:16:43.138Z,31.42
2022-07-28T10:18:41.724Z,31.37
2022-07-28T10:20:40.093Z,33.24
2022-07-28T10:22:43.457Z,33.86
2022-07-28T10:24:42.142Z,34.58
2022-07-28T10:26:45.163Z,33.31
2022-07-28T10:28:45.385Z,32.62
2022-07-28T10:30:44.052Z,31.58
2022-07-28T10:32:44.734Z,30.62
2022-07-28T10:34:47.372Z,29.64
2022-07-28T10:36:45.897Z,29.01
2022-07-28T10:38:46.109Z,28.33
2022-07-28T10:40:48.241Z,27.61
2022-07-28T10:42:46.601Z,27.51
2022-07-28T10:44:46.251Z,27.53
2022-07-28T10:46:44.936Z,27.83
2022-07-28T10:48:43.757Z,29.40
2022-07-28T10:50:42.279Z,30.99
2022-07-28T10:52:52.421Z,31.62
2022-07-28T10:55:13.828Z,33.10
2022-07-28T10:57:13.727Z,33.65
2022-07-28T10:59:37.313Z,31.79
2022-07-28T11:01:52.900Z,30.89
2022-07-28T11:03:51.361Z,30.65
2022-07-28T11:05:49.767Z,30.46
2022-07-28T11:07:47.953Z,30.09
2022-07-28T11:09:47.974Z,29.85
2022-07-28T11:11:50.941Z,29.45
2022-07-28T11:13:50.482Z,29.03
2022-07-28T11:15:51.265Z,29.16
2022-07-28T11:17:59.574Z,29.32
2022-07-28T11:22:25.108Z,29.78
2022-07-28T11:24:23.350Z,29.97
2022-07-28T11:26:41.928Z,30.25
2022-07-28T11:29:09.726Z,29.54
2022-07-28T11:31:09.560Z,29.42
2022-07-28T11:33:09.523Z,29.27
2022-07-28T11:35:11.242Z,29.62
2022-07-28T11:37:15.027Z,29.68
2022-07-28T11:39:23.236Z,29.59
2022-07-28T11:41:30.242Z,29.84
2022-07-28T11:43:39.812Z,29.76
2022-07-28T11:45:40.581Z,29.98
2022-07-28T11:47:45.418Z,30.20
2022-07-28T11:49:44.420Z,30.01
2022-07-28T11:51:52.421Z,29.72
2022-07-28T11:53:53.227Z,29.54
2022-07-28T11:56:02.384Z,29.24
2022-07-28T11:58:03.110Z,28.86
2022-07-28T12:00:03.669Z,29.12
2022-07-28T12:02:04.186Z,29.11
2022-07-28T12:04:13.380Z,29.12
2022-07-28T12:06:13.311Z,29.20
2022-07-28T12:08:12.464Z,29.47
2022-07-28T12:10:54.669Z,29.96
2022-07-28T12:12:51.310Z,30.00
2022-07-28T12:14:50.209Z,29.74
2022-07-28T12:16:52.285Z,29.47
2022-07-28T12:18:53.765Z,29.16
2022-07-28T12:20:55.932Z,29.19
2022-07-28T12:22:57.221Z,29.51
2022-07-28T12:24:59.063Z,29.64
2022-07-28T12:26:58.244Z,29.58
2022-07-28T12:28:57.161Z,29.49
2022-07-28T12:30:55.346Z,29.50
2022-07-28T12:32:53.988Z,29.53
2022-07-28T12:34:52.284Z,29.50
2022-07-28T12:36:52.726Z,29.68
2022-07-28T12:38:52.418Z,30.20
2022-07-28T12:40:50.834Z,30.24
2022-07-28T12:42:56.529Z,30.45
2022-07-28T12:45:05.523Z,30.26
2022-07-28T12:47:04.943Z,29.92
2022-07-28T12:49:03.916Z,29.66
2022-07-28T12:51:02.373Z,29.56
2022-07-28T12:53:07.107Z,29.50
2022-07-28T12:55:22.398Z,29.30
2022-07-28T12:57:44.830Z,29.18
2022-07-28T12:59:46.890Z,28.85
2022-07-28T13:01:52.444Z,29.10
2022-07-28T13:03:53.962Z,29.21
2022-07-28T13:06:05.576Z,29.33
2022-07-28T13:08:06.669Z,29.19
2022-07-28T13:10:12.284Z,29.24
2022-07-28T13:12:21.730Z,29.39
2022-07-28T13:14:39.898Z,29.68
2022-07-28T13:16:38.377Z,29.79
2022-07-28T13:18:40.646Z,29.64
2022-07-28T13:20:52.563Z,29.44
2022-07-28T13:22:50.867Z,29.49
2022-07-28T13:24:50.622Z,29.43
2022-07-28T13:26:48.994Z,29.45
2022-07-28T13:28:47.240Z,29.49
2022-07-28T13:30:45.545Z,29.48
2022-07-28T13:32:43.920Z,29.54
2022-07-28T13:34:43.078Z,29.35
2022-07-28T13:36:44.811Z,29.24
2022-07-28T13:38:43.114Z,29.13
2022-07-28T13:40:42.921Z,29.15
2022-07-28T13:42:52.804Z,28.99
2022-07-28T13:44:51.832Z,28.93
2022-07-28T13:46:50.718Z,28.90
2022-07-28T13:48:57.714Z,28.83
2022-07-28T13:50:58.262Z,28.66
2022-07-28T13:52:56.518Z,28.66
2022-07-28T13:54:54.798Z,28.84
2022-07-28T13:56:55.190Z,29.00
2022-07-28T13:58:53.591Z,29.06
2022-07-28T14:00:51.909Z,28.84
2022-07-28T14:02:50.150Z,28.83
2022-07-28T14:04:50.002Z,28.96
2022-07-28T14:06:48.944Z,29.00
2022-07-28T14:08:48.034Z,28.89
2022-07-28T14:10:48.299Z,28.93
2022-07-28T14:12:48.811Z,29.01
2022-07-28T14:14:47.986Z,29.01
2022-07-28T14:16:47.985Z,29.13
2022-07-28T14:18:46.602Z,29.00
2022-07-28T14:20:44.906Z,28.46
2022-07-28T14:22:43.750Z,27.79
2022-07-28T14:24:42.545Z,27.21
2022-07-28T14:26:40.966Z,26.99
2022-07-28T14:28:41.324Z,27.00
2022-07-28T14:30:39.546Z,27.11
2022-07-28T14:32:39.036Z,27.08
2022-07-28T14:34:37.401Z,26.87
2022-07-28T14:36:38.196Z,26.79
2022-07-28T14:38:52.390Z,26.64
2022-07-28T14:40:51.821Z,26.64
2022-07-28T14:42:50.052Z,26.67
2022-07-28T14:44:49.835Z,26.65
2022-07-28T14:46:48.115Z,26.58
2022-07-28T14:48:46.393Z,26.69
2022-07-28T14:50:46.841Z,26.83
2022-07-28T14:52:48.011Z,26.88
2022-07-28T14:54:47.716Z,26.92
2022-07-28T14:56:45.936Z,26.89
2022-07-28T14:58:44.190Z,26.89
2022-07-28T15:00:44.143Z,26.89
2022-07-28T15:02:43.004Z,26.91
2022-07-28T15:04:43.978Z,26.95
2022-07-28T15:06:42.272Z,27.03
2022-07-28T15:08:40.516Z,27.01
2022-07-28T15:10:39.020Z,27.02
2022-07-28T15:12:37.974Z,27.10
2022-07-28T15:14:36.276Z,27.13
2022-07-28T15:16:36.235Z,27.16
2022-07-28T15:18:34.425Z,27.29
2022-07-28T15:20:32.778Z,27.25
2022-07-28T15:22:31.074Z,27.25
2022-07-28T15:24:30.631Z,27.28
2022-07-28T15:26:28.915Z,27.23
2022-07-28T15:28:28.843Z,27.23
2022-07-28T15:30:28.777Z,27.12
2022-07-28T15:32:28.771Z,27.03
2022-07-28T15:34:27.180Z,26.95
2022-07-28T15:36:26.081Z,26.90
2022-07-28T15:38:24.328Z,26.88
2022-07-28T15:40:23.024Z,26.86
2022-07-28T15:42:21.400Z,26.79
2022-07-28T15:44:26.160Z,26.79
2022-07-28T15:46:24.816Z,26.83
2022-07-28T15:48:24.982Z,26.81
2022-07-28T15:50:23.349Z,26.83
2022-07-28T15:52:21.647Z,26.82
2022-07-28T15:54:20.086Z,26.79
2022-07-28T15:56:20.833Z,26.77
2022-07-28T15:58:19.207Z,26.72
2022-07-28T16:00:18.781Z,26.72
2022-07-28T16:02:17.665Z,26.70
2022-07-28T16:04:18.261Z,26.69
2022-07-28T16:06:17.023Z,26.73
2022-07-28T16:08:15.555Z,26.74
2022-07-28T16:10:13.844Z,26.76
2022-07-28T16:12:14.373Z,26.75
2022-07-28T16:14:13.171Z,26.74
2022-07-28T16:16:12.778Z,26.71
2022-07-28T16:18:12.389Z,26.74
2022-07-28T16:20:12.908Z,26.71
2022-07-28T16:22:11.072Z,26.65
2022-07-28T16:24:09.539Z,26.64
2022-07-28T16:26:09.326Z,26.68
2022-07-28T16:28:07.784Z,26.65
2022-07-28T16:30:07.265Z,26.63
2022-07-28T16:32:05.980Z,26.67
2022-07-28T16:34:04.566Z,26.62
2022-07-28T16:36:05.021Z,26.58
2022-07-28T16:38:04.535Z,26.64
2022-07-28T16:40:03.457Z,26.59
2022-07-28T16:42:02.825Z,26.69
2022-07-28T16:44:01.386Z,26.63
2022-07-28T16:45:59.734Z,26.64
2022-07-28T16:47:58.156Z,26.62
2022-07-28T16:49:56.605Z,26.56
2022-07-28T16:51:56.353Z,26.53
2022-07-28T16:53:54.724Z,26.48
2022-07-28T16:55:53.090Z,26.46
2022-07-28T16:57:52.219Z,26.34
2022-07-28T16:59:50.415Z,26.26
2022-07-28T17:01:48.906Z,26.25
2022-07-28T17:03:47.132Z,26.29
2022-07-28T17:05:45.366Z,26.15
2022-07-28T17:07:46.186Z,26.06
2022-07-28T17:09:44.933Z,26.05
2022-07-28T17:11:43.864Z,26.02
2022-07-28T17:13:45.400Z,25.98
2022-07-28T17:15:43.909Z,25.95
2022-07-28T17:17:44.221Z,25.64
2022-07-28T17:19:46.767Z,25.67
2022-07-28T17:21:45.323Z,25.47
2022-07-28T17:23:44.980Z,25.29
2022-07-28T17:26:04.967Z,25.20
2022-07-28T17:28:01.591Z,25.20
2022-07-28T17:29:59.876Z,25.20
2022-07-28T17:31:58.314Z,25.14
2022-07-28T17:33:56.536Z,25.20
2022-07-28T17:35:56.546Z,25.17
2022-07-28T17:37:55.052Z,25.17
2022-07-28T17:39:54.826Z,25.10
2022-07-28T17:41:53.179Z,25.07
2022-07-28T17:43:51.490Z,25.02
2022-07-28T17:45:49.921Z,24.83
2022-07-28T17:47:48.397Z,24.42
2022-07-28T17:49:47.151Z,24.01
2022-07-28T17:51:45.577Z,23.61
2022-07-28T17:53:45.150Z,23.36
2022-07-28T17:55:55.912Z,23.07
2022-07-28T17:58:09.431Z,22.90
2022-07-28T18:00:09.681Z,22.60
2022-07-28T18:02:10.222Z,22.50
2022-07-28T18:04:08.539Z,22.38
2022-07-28T18:06:07.191Z,22.38
2022-07-28T18:08:06.420Z,22.40
2022-07-28T18:10:05.659Z,22.42
2022-07-28T18:12:05.776Z,22.46
2022-07-28T18:14:18.079Z,22.50
2022-07-28T18:16:16.785Z,22.48
2022-07-28T18:18:15.281Z,22.55
2022-07-28T18:20:13.765Z,22.58
2022-07-28T18:22:12.244Z,22.61
2022-07-28T18:24:10.475Z,22.70
2022-07-28T18:26:08.750Z,22.70
2022-07-28T18:28:08.951Z,22.57
2022-07-28T18:30:08.558Z,22.50
2022-07-28T18:32:08.548Z,22.44
2022-07-28T18:34:08.519Z,22.31
2022-07-28T18:36:07.427Z,22.09
2022-07-28T18:38:06.374Z,21.92
2022-07-28T18:40:05.541Z,21.87
2022-07-28T18:42:07.120Z,21.74
2022-07-28T18:44:06.885Z,21.76
2022-07-28T18:46:05.361Z,21.67
2022-07-28T18:48:04.509Z,21.63
2022-07-28T18:50:06.957Z,21.67
2022-07-28T18:52:25.358Z,21.71
2022-07-28T18:54:27.455Z,21.61
2022-07-28T18:56:26.579Z,21.58
2022-07-28T18:58:25.009Z,21.73
2022-07-28T19:00:24.830Z,22.12
2022-07-28T19:02:23.129Z,22.31
2022-07-28T19:04:25.814Z,22.32
2022-07-28T19:06:23.981Z,22.42
2022-07-28T19:08:22.387Z,22.48
2022-07-28T19:10:20.739Z,22.34
2022-07-28T19:12:19.291Z,22.43
2022-07-28T19:14:18.497Z,22.31
2022-07-28T19:16:19.519Z,22.12
2022-07-28T19:18:17.976Z,22.12
2022-07-28T19:20:17.744Z,22.02
2022-07-28T19:22:16.581Z,22.15
2022-07-28T19:24:16.513Z,22.19
2022-07-28T19:26:15.215Z,22.23
2022-07-28T19:28:13.557Z,21.91
2022-07-28T19:30:12.496Z,21.75
2022-07-28T19:32:12.286Z,21.74
2022-07-28T19:34:11.139Z,21.67
2022-07-28T19:36:10.771Z,21.84
2022-07-28T19:38:09.047Z,21.69
2022-07-28T19:40:09.629Z,21.64
2022-07-28T19:42:10.066Z,21.57
2022-07-28T19:44:08.593Z,21.56
2022-07-28T19:46:07.115Z,21.39
2022-07-28T19:48:07.828Z,21.44
2022-07-28T19:50:08.297Z,21.44
2022-07-28T19:52:06.782Z,21.50
2022-07-28T19:54:05.588Z,21.44
2022-07-28T19:56:03.786Z,21.30
2022-07-28T19:58:06.186Z,21.20
2022-07-28T20:00:07.709Z,21.21
2022-07-28T20:02:10.044Z,21.21
2022-07-28T20:04:10.739Z,21.24
2022-07-28T20:06:09.883Z,21.28
2022-07-28T20:08:08.352Z,21.20
2022-07-28T20:10:10.559Z,21.18
2022-07-28T20:12:10.653Z,21.12
2022-07-28T20:14:09.130Z,21.16
2022-07-28T20:16:07.845Z,21.12
2022-07-28T20:18:06.343Z,20.99
2022-07-28T20:20:10.286Z,21.03
2022-07-28T20:22:10.826Z,21.05
2022-07-28T20:24:09.842Z,20.90
2022-07-28T20:26:10.259Z,20.85
2022-07-28T20:28:08.787Z,20.87
2022-07-28T20:30:11.697Z,20.90
2022-07-28T20:32:10.186Z,20.96
2022-07-28T20:34:12.755Z,20.79
2022-07-28T20:36:13.022Z,20.69
2022-07-28T20:38:11.184Z,20.58
2022-07-28T20:40:11.136Z,20.58
2022-07-28T20:42:09.532Z,20.55
2022-07-28T20:44:27.883Z,20.49
2022-07-28T20:46:26.543Z,20.35
2022-07-28T20:48:24.818Z,20.40
2022-07-28T20:50:25.023Z,20.38
2022-07-28T20:52:24.783Z,20.68
2022-07-28T20:54:23.480Z,20.74
2022-07-28T20:56:21.778Z,20.52
2022-07-28T20:58:20.074Z,20.48
2022-07-28T21:00:19.146Z,20.47
2022-07-28T21:02:17.448Z,20.45
2022-07-28T21:04:16.050Z,20.35
2022-07-28T21:06:14.593Z,20.27
2022-07-28T21:08:16.227Z,20.21
2022-07-28T21:10:15.525Z,20.36
2022-07-28T21:12:13.891Z,20.42
2022-07-28T21:14:14.245Z,20.42
2022-07-28T21:16:13.232Z,20.42
2022-07-28T21:18:12.815Z,20.48
2022-07-28T21:20:11.890Z,20.40
2022-07-28T21:22:10.464Z,20.34
2022-07-28T21:24:10.696Z,20.29
2022-07-28T21:26:09.780Z,20.30
2022-07-28T21:28:25.608Z,20.44
2022-07-28T21:30:28.146Z,20.35
2022-07-28T21:32:26.804Z,20.23
2022-07-28T21:34:25.007Z,20.16
2022-07-28T21:36:23.285Z,20.16
2022-07-28T21:38:21.963Z,20.14
2022-07-28T21:40:21.848Z,20.19
2022-07-28T21:42:20.151Z,20.09
2022-07-28T21:44:19.018Z,19.97
2022-07-28T21:46:17.388Z,19.90
2022-07-28T21:48:19.251Z,19.96
2022-07-28T21:50:17.846Z,20.03
2022-07-28T21:52:16.221Z,20.07
2022-07-28T21:54:15.107Z,20.02
2022-07-28T21:56:15.258Z,20.07
2022-07-28T21:58:14.023Z,20.07
2022-07-28T22:00:13.527Z,20.21
2022-07-28T22:02:11.888Z,20.22
2022-07-28T22:04:10.119Z,20.26
2022-07-28T22:06:08.873Z,20.39
2022-07-28T22:08:08.803Z,20.50
2022-07-28T22:10:07.918Z,20.39
2022-07-28T22:12:08.763Z,20.39
2022-07-28T22:14:07.059Z,20.34
2022-07-28T22:16:05.785Z,20.22
2022-07-28T22:18:04.164Z,20.16
2022-07-28T22:20:02.568Z,20.16
2022-07-28T22:22:01.253Z,20.08
2022-07-28T22:23:59.710Z,20.03
2022-07-28T22:25:58.156Z,20.02
2022-07-28T22:27:57.897Z,19.91
2022-07-28T22:29:56.221Z,19.85
2022-07-28T22:31:59.081Z,19.86
2022-07-28T22:33:58.825Z,19.94
2022-07-28T22:35:57.171Z,20.01
2022-07-28T22:37:55.662Z,20.08
2022-07-28T22:39:54.136Z,20.14
2022-07-28T22:41:52.430Z,20.01
2022-07-28T22:43:52.108Z,19.81
2022-07-28T22:45:51.687Z,19.85
2022-07-28T22:47:50.215Z,19.72
2022-07-28T22:49:48.880Z,19.82
2022-07-28T22:51:48.150Z,19.68
2022-07-28T22:53:46.627Z,19.83
2022-07-28T22:55:44.922Z,19.90
2022-07-28T22:57:43.322Z,19.80
2022-07-28T22:59:48.040Z,19.74
2022-07-28T23:01:49.776Z,19.89
2022-07-28T23:03:48.086Z,19.79
2022-07-28T23:05:46.463Z,19.82
2022-07-28T23:07:51.371Z,19.65
2022-07-28T23:09:59.034Z,19.62
2022-07-28T23:11:59.946Z,19.54
2022-07-28T23:13:58.286Z,19.68
2022-07-28T23:15:58.060Z,19.70
2022-07-28T23:17:56.362Z,19.83
2022-07-28T23:19:57.917Z,19.92
2022-07-28T23:21:56.306Z,19.96
2022-07-28T23:23:54.638Z,20.04
2022-07-28T23:25:52.979Z,20.01
2022-07-28T23:27:51.267Z,20.03
2022-07-28T23:29:49.554Z,20.09
2022-07-28T23:31:49.749Z,20.08
2022-07-28T23:33:55.561Z,19.85
2022-07-28T23:35:55.641Z,19.64
2022-07-28T23:37:53.969Z,19.82
2022-07-28T23:39:52.232Z,19.83
2022-07-28T23:41:50.642Z,19.78
2022-07-28T23:43:48.960Z,19.90
2022-07-28T23:45:47.337Z,19.85
2022-07-28T23:47:47.058Z,19.87
2022-07-28T23:49:45.468Z,19.81
2022-07-28T23:51:47.629Z,19.92
2022-07-28T23:53:46.876Z,19.95
2022-07-28T23:55:45.740Z,19.93
2022-07-28T23:57:43.992Z,19.96
2022-07-28T23:59:42.442Z,20.04
